Time;durP1;ratioP1;P1;durP2;ratioP2;P2;SDS_P1;SDS_P2;PMS_P1;PMS_P2;Temp;Humidity;BMP_temperature;BMP_pressure;BME280_temperature;BME280_humidity;BME280_pressure;Samples;Min_cycle;Max_cycle;Signal;HPM_P1;HPM_P2
2024/01/18 00:00:04;;;;;;;15.73;11.57;;;;;;;5.41;58.31;94302.44;5048635;28;20304;-76
2024/01/18 00:02:29;;;;;;;14.07;11.60;;;;;;;5.53;58.18;94287.47;5047985;28;20185;-76
2024/01/18 00:04:55;;;;;;;17.47;12.43;;;;;;;5.56;57.90;94282.00;5049014;28;20225;-77
2024/01/18 00:07:22;;;;;;;16.67;12.57;;;;;;;5.51;58.07;94294.63;5045109;28;20232;-77
2024/01/18 00:09:47;;;;;;;13.30;11.90;;;;;;;5.57;57.94;94282.81;5052118;28;20227;-77
2024/01/18 00:12:12;;;;;;;16.50;12.73;;;;;;;5.49;58.68;94286.13;5050435;28;20221;-77
2024/01/18 00:14:38;;;;;;;16.10;13.57;;;;;;;5.43;59.12;94286.69;5050091;28;20203;-76
2024/01/18 00:17:03;;;;;;;17.13;13.73;;;;;;;5.41;59.04;94275.56;5051873;28;20219;-79
2024/01/18 00:19:29;;;;;;;16.10;14.17;;;;;;;5.54;59.12;94263.06;5053082;28;20244;-79
2024/01/18 00:21:54;;;;;;;19.53;14.90;;;;;;;5.49;59.63;94254.81;5052143;28;20300;-80
2024/01/18 00:24:20;;;;;;;17.63;14.50;;;;;;;5.46;59.80;94248.09;5047615;28;20245;-79
2024/01/18 00:26:45;;;;;;;17.70;14.37;;;;;;;5.42;60.12;94262.38;5051428;28;20277;-79
2024/01/18 00:29:11;;;;;;;18.30;14.87;;;;;;;5.18;60.73;94280.22;5050161;28;20194;-77
2024/01/18 00:31:36;;;;;;;19.50;14.93;;;;;;;5.41;60.31;94270.34;5049875;28;20220;-77
2024/01/18 00:34:01;;;;;;;18.17;15.77;;;;;;;5.45;60.65;94263.88;5051095;28;20209;-77
2024/01/18 00:36:27;;;;;;;17.70;14.77;;;;;;;5.38;60.46;94273.22;5051192;28;20218;-76
2024/01/18 00:38:53;;;;;;;18.00;14.27;;;;;;;5.42;60.59;94257.16;5048561;28;20217;-77
2024/01/18 00:41:20;;;;;;;16.47;14.57;;;;;;;5.36;60.54;94281.19;5047460;28;20201;-77
2024/01/18 00:43:46;;;;;;;18.43;14.23;;;;;;;5.33;60.99;94257.19;5050647;28;20221;-76
2024/01/18 00:46:11;;;;;;;20.50;14.43;;;;;;;5.25;61.19;94274.31;5046916;28;20241;-77
2024/01/18 00:48:37;;;;;;;16.87;13.00;;;;;;;5.33;60.32;94241.53;5049417;28;20229;-77
2024/01/18 00:51:02;;;;;;;18.37;14.20;;;;;;;5.26;60.99;94273.34;5067318;28;20232;-77
2024/01/18 00:53:28;;;;;;;16.73;13.30;;;;;;;5.18;61.51;94264.59;5046875;28;20189;-77
2024/01/18 00:55:53;;;;;;;16.70;12.90;;;;;;;5.31;60.80;94244.28;5050690;28;20291;-77
2024/01/18 00:58:18;;;;;;;17.47;13.53;;;;;;;5.29;60.88;94251.41;5048549;28;20229;-78
2024/01/18 01:00:44;;;;;;;15.77;13.67;;;;;;;5.16;61.25;94238.69;5065534;28;20225;-77
2024/01/18 01:03:09;;;;;;;15.53;12.40;;;;;;;5.26;61.20;94242.06;5067116;28;20225;-76
2024/01/18 01:05:35;;;;;;;15.73;13.20;;;;;;;5.30;61.18;94246.06;5044150;28;20285;-76
2024/01/18 01:08:00;;;;;;;15.80;13.10;;;;;;;5.26;61.92;94236.84;5065246;28;20190;-78
2024/01/18 01:10:25;;;;;;;16.37;12.70;;;;;;;5.35;62.29;94242.22;5050583;28;20221;-76
2024/01/18 01:12:51;;;;;;;16.20;13.37;;;;;;;5.36;62.53;94242.06;5049611;28;20264;-76
2024/01/18 01:15:16;;;;;;;18.30;13.03;;;;;;;5.42;62.24;94232.88;5047823;28;20237;-76
2024/01/18 01:17:43;;;;;;;15.67;13.63;;;;;;;5.32;62.46;94206.84;5063463;28;20201;-73
2024/01/18 01:20:11;;;;;;;16.20;13.70;;;;;;;5.38;62.93;94227.13;5049990;28;20181;-76
2024/01/18 01:22:37;;;;;;;16.10;13.33;;;;;;;5.40;63.36;94200.88;5049705;28;20222;-76
2024/01/18 01:25:02;;;;;;;15.90;13.37;;;;;;;5.44;62.98;94199.66;5050856;28;20221;-75
2024/01/18 01:27:28;;;;;;;16.97;13.37;;;;;;;5.46;63.11;94195.13;5050682;28;20213;-77
2024/01/18 01:29:53;;;;;;;18.63;13.00;;;;;;;5.41;63.44;94179.91;5049507;28;20217;-77
2024/01/18 01:32:18;;;;;;;14.90;13.10;;;;;;;5.44;63.11;94169.19;5049099;28;20185;-76
2024/01/18 01:34:44;;;;;;;16.40;14.27;;;;;;;5.62;63.35;94171.91;5048322;28;20226;-77
2024/01/18 01:37:09;;;;;;;16.70;13.73;;;;;;;5.44;63.87;94170.97;5050050;28;20228;-77
2024/01/18 01:39:35;;;;;;;14.53;13.00;;;;;;;5.56;62.94;94169.00;5050423;28;20223;-77
2024/01/18 01:42:02;;;;;;;15.90;13.10;;;;;;;5.47;63.45;94194.16;5049280;28;20237;-77
2024/01/18 01:44:28;;;;;;;15.27;12.63;;;;;;;5.49;63.69;94182.63;5042524;28;20248;-77
2024/01/18 01:46:53;;;;;;;17.40;12.50;;;;;;;5.25;64.31;94196.13;5047984;28;20229;-77
2024/01/18 01:49:19;;;;;;;13.90;12.13;;;;;;;5.33;64.69;94176.38;5051765;28;20221;-77
2024/01/18 01:51:50;;;;;;;15.67;12.57;;;;;;;5.47;63.92;94149.84;5050851;28;20217;-76
2024/01/18 01:54:18;;;;;;;13.10;11.13;;;;;;;5.46;64.54;94156.84;5057513;28;20214;-75
2024/01/18 01:56:46;;;;;;;15.80;12.23;;;;;;;5.45;64.71;94142.19;5047223;28;20185;-76
2024/01/18 01:59:12;;;;;;;14.73;11.90;;;;;;;5.37;65.11;94157.69;5051716;28;20189;-76
2024/01/18 02:01:40;;;;;;;14.37;12.17;;;;;;;5.35;65.52;94157.03;5047282;28;20229;-78
2024/01/18 02:04:05;;;;;;;17.10;12.10;;;;;;;5.35;65.27;94141.38;5048346;28;20237;-77
2024/01/18 02:06:33;;;;;;;12.90;11.30;;;;;;;5.38;65.39;94151.53;5046217;28;20222;-77
2024/01/18 02:09:01;;;;;;;13.63;11.80;;;;;;;5.54;65.52;94145.72;5050020;28;20221;-77
2024/01/18 02:11:27;;;;;;;17.27;11.87;;;;;;;5.49;65.42;94142.72;5047985;28;20189;-78
2024/01/18 02:13:54;;;;;;;13.37;11.37;;;;;;;5.38;65.97;94161.13;5040745;28;20214;-77
2024/01/18 02:16:19;;;;;;;17.70;14.40;;;;;;;5.21;66.64;94163.50;5050113;28;20220;-78
2024/01/18 02:18:46;;;;;;;15.73;12.83;;;;;;;5.45;66.35;94150.00;5049972;28;20225;-78
2024/01/18 02:21:12;;;;;;;15.67;13.77;;;;;;;5.42;66.37;94154.66;5042741;28;20217;-79
2024/01/18 02:23:40;;;;;;;16.10;13.87;;;;;;;5.41;66.73;94147.81;5046705;28;20193;-77
2024/01/18 02:26:06;;;;;;;15.30;13.57;;;;;;;5.33;67.04;94132.06;5044401;28;20200;-79
2024/01/18 02:28:31;;;;;;;19.70;14.17;;;;;;;5.39;67.25;94134.09;5048725;28;20209;-78
2024/01/18 02:30:57;;;;;;;19.13;14.00;;;;;;;5.43;67.23;94128.44;5045745;28;20290;-77
2024/01/18 02:33:22;;;;;;;14.90;13.23;;;;;;;5.40;67.54;94149.59;5049814;28;20214;-77
2024/01/18 02:35:50;;;;;;;14.53;13.03;;;;;;;5.39;67.33;94121.06;5050693;28;20188;-77
2024/01/18 02:38:15;;;;;;;15.73;13.53;;;;;;;5.33;67.68;94156.34;5049469;28;20273;-78
2024/01/18 02:40:42;;;;;;;14.70;13.13;;;;;;;5.23;68.44;94125.06;5049547;28;20300;-78
2024/01/18 02:43:07;;;;;;;16.43;13.57;;;;;;;5.40;67.94;94091.41;5062079;28;20213;-78
2024/01/18 02:45:35;;;;;;;13.40;11.83;;;;;;;5.48;67.33;94122.78;5060272;28;20221;-78
2024/01/18 02:48:01;;;;;;;15.03;12.53;;;;;;;5.36;67.40;94118.72;5064861;28;20237;-78
2024/01/18 02:50:26;;;;;;;14.57;13.00;;;;;;;5.24;67.76;94103.28;5052789;28;20251;-78
2024/01/18 02:52:52;;;;;;;14.47;11.97;;;;;;;5.43;67.30;94114.59;5046832;28;20217;-78
2024/01/18 02:55:18;;;;;;;13.37;11.97;;;;;;;5.42;67.32;94105.94;5048229;28;20225;-78
2024/01/18 02:57:43;;;;;;;14.27;12.67;;;;;;;5.42;67.58;94100.72;5042177;28;20272;-78
2024/01/18 03:00:11;;;;;;;13.73;12.27;;;;;;;5.43;66.96;94117.22;5060374;28;20253;-78
2024/01/18 03:02:37;;;;;;;14.00;12.60;;;;;;;5.48;67.00;94113.22;5050811;28;20236;-77
2024/01/18 03:05:02;;;;;;;17.57;12.60;;;;;;;5.35;67.47;94125.75;5069016;28;20205;-78
2024/01/18 03:07:28;;;;;;;15.00;12.53;;;;;;;5.38;67.45;94122.03;5052041;28;20224;-79
2024/01/18 03:09:54;;;;;;;14.67;11.80;;;;;;;5.40;67.19;94074.00;5052909;28;20225;-79
2024/01/18 03:12:20;;;;;;;15.00;12.50;;;;;;;5.37;67.26;94105.53;5051002;28;20243;-78
2024/01/18 03:14:45;;;;;;;14.43;12.43;;;;;;;5.30;67.58;94086.25;5070365;28;20190;-78
2024/01/18 03:17:10;;;;;;;14.67;12.43;;;;;;;5.41;67.21;94090.44;5049747;28;20185;-79
2024/01/18 03:19:36;;;;;;;13.13;11.73;;;;;;;5.51;67.08;94117.31;5052513;28;20217;-77
2024/01/18 03:22:01;;;;;;;14.40;12.23;;;;;;;5.21;67.56;94133.97;5068282;28;20233;-77
2024/01/18 03:24:27;;;;;;;12.93;11.63;;;;;;;5.22;67.81;94096.56;5068373;28;20225;-77
2024/01/18 03:26:52;;;;;;;14.47;11.90;;;;;;;5.43;67.68;94110.19;5050269;28;20221;-77
2024/01/18 03:29:17;;;;;;;12.83;11.33;;;;;;;5.32;67.38;94094.75;5041682;28;20182;-78
2024/01/18 03:31:43;;;;;;;14.83;12.10;;;;;;;5.36;67.60;94103.09;5051583;28;20223;-76
2024/01/18 03:34:08;;;;;;;15.63;11.90;;;;;;;5.37;67.65;94118.56;5052614;28;20225;-76
2024/01/18 03:36:34;;;;;;;13.47;12.03;;;;;;;5.28;67.37;94102.00;5048029;28;20230;-77
2024/01/18 03:38:59;;;;;;;14.80;12.50;;;;;;;5.04;67.94;94105.09;5049548;28;20275;-78
2024/01/18 03:41:25;;;;;;;17.10;12.07;;;;;;;5.05;68.36;94131.97;5069459;28;20186;-79
2024/01/18 03:43:50;;;;;;;16.90;12.93;;;;;;;5.05;68.47;94087.66;5052570;28;20221;-78
2024/01/18 03:46:16;;;;;;;16.53;12.37;;;;;;;4.99;68.79;94135.94;5051139;28;20285;-78
2024/01/18 03:48:41;;;;;;;15.43;12.27;;;;;;;5.04;68.55;94079.03;5051901;28;20217;-78
2024/01/18 03:51:07;;;;;;;15.40;11.63;;;;;;;5.18;68.79;94092.56;5067501;28;20224;-77
2024/01/18 03:53:32;;;;;;;15.93;12.83;;;;;;;5.11;68.18;94100.16;5066586;28;20284;-77
2024/01/18 03:55:58;;;;;;;17.83;13.07;;;;;;;5.25;67.74;94102.28;5051022;28;20231;-78
2024/01/18 03:58:23;;;;;;;15.53;12.20;;;;;;;5.32;67.16;94107.78;5051206;28;20229;-78
2024/01/18 04:00:49;;;;;;;15.63;12.53;;;;;;;5.30;67.25;94094.06;5051165;28;20221;-77
2024/01/18 04:03:14;;;;;;;15.97;12.70;;;;;;;5.26;67.06;94127.38;5048574;28;20281;-78
2024/01/18 04:05:39;;;;;;;15.27;12.97;;;;;;;5.19;68.00;94071.59;5047621;28;20208;-78
2024/01/18 04:08:05;;;;;;;14.70;13.20;;;;;;;5.28;67.51;94082.94;5052792;28;20201;-78
2024/01/18 04:10:30;;;;;;;14.57;12.43;;;;;;;5.25;67.68;94120.53;5050470;28;20300;-77
2024/01/18 04:12:57;;;;;;;17.53;12.60;;;;;;;5.36;67.73;94100.47;5051721;28;20242;-77
2024/01/18 04:15:22;;;;;;;16.50;12.80;;;;;;;5.15;68.03;94116.31;5052030;28;20221;-77
2024/01/18 04:17:48;;;;;;;14.97;13.23;;;;;;;5.12;68.43;94100.97;5050868;28;20216;-78
2024/01/18 04:20:16;;;;;;;17.77;13.53;;;;;;;5.25;67.88;94106.69;5051338;28;20189;-78
2024/01/18 04:22:43;;;;;;;16.23;13.17;;;;;;;5.36;67.60;94087.44;5034575;28;20224;-78
2024/01/18 04:25:10;;;;;;;16.57;12.57;;;;;;;5.15;68.32;94109.31;5050203;28;20237;-77
2024/01/18 04:27:36;;;;;;;14.90;13.30;;;;;;;5.03;69.01;94100.03;5051530;28;20225;-77
2024/01/18 04:30:02;;;;;;;16.33;12.63;;;;;;;5.25;68.41;94110.13;5050899;28;20287;-77
2024/01/18 04:32:27;;;;;;;14.23;12.73;;;;;;;5.07;68.57;94114.41;5052996;28;20193;-78
2024/01/18 04:34:53;;;;;;;15.80;12.83;;;;;;;5.14;68.41;94153.78;5067007;28;20221;-76
2024/01/18 04:37:18;;;;;;;18.17;13.83;;;;;;;5.11;68.78;94128.81;5049715;28;20221;-75
2024/01/18 04:39:43;;;;;;;17.33;13.93;;;;;;;5.18;68.22;94106.41;5049640;28;20213;-76
2024/01/18 04:42:09;;;;;;;15.67;13.03;;;;;;;5.24;68.31;94118.91;5049517;28;20355;-76
2024/01/18 04:44:34;;;;;;;16.17;13.93;;;;;;;5.29;68.50;94124.53;5044353;28;20210;-75
2024/01/18 04:47:00;;;;;;;16.07;13.90;;;;;;;5.14;68.46;94112.06;5052670;28;20208;-76
2024/01/18 04:49:25;;;;;;;15.63;13.50;;;;;;;5.14;68.55;94078.19;5048867;28;20220;-78
2024/01/18 04:51:51;;;;;;;18.80;14.23;;;;;;;5.23;68.44;94080.75;5050761;28;20239;-75
2024/01/18 04:54:16;;;;;;;16.13;13.63;;;;;;;5.37;68.47;94107.31;5049096;28;20233;-75
2024/01/18 04:56:42;;;;;;;17.90;13.40;;;;;;;5.26;68.12;94096.09;5066370;28;20258;-72
2024/01/18 04:59:08;;;;;;;18.20;14.07;;;;;;;5.34;68.22;94099.78;5049411;28;20197;-73
2024/01/18 05:01:38;;;;;;;17.43;13.97;;;;;;;5.27;68.44;94136.88;5049346;28;20229;-73
2024/01/18 05:04:04;;;;;;;15.97;14.27;;;;;;;5.20;68.18;94086.25;5049069;28;20222;-74
2024/01/18 05:06:31;;;;;;;18.00;14.57;;;;;;;5.33;68.07;94093.78;5030650;28;20232;-79
2024/01/18 05:08:57;;;;;;;17.67;12.77;;;;;;;5.41;67.83;94116.53;5048783;28;20267;-79
2024/01/18 05:11:22;;;;;;;18.73;14.37;;;;;;;5.35;67.44;94091.03;5051135;28;20189;-78
2024/01/18 05:13:47;;;;;;;19.07;13.83;;;;;;;5.31;67.93;94098.28;5049853;28;20205;-76
2024/01/18 05:16:13;;;;;;;16.43;14.33;;;;;;;5.22;68.12;94102.59;5048780;28;20224;-78
2024/01/18 05:18:39;;;;;;;16.87;14.57;;;;;;;4.79;69.56;94140.38;5043929;28;20229;-78
2024/01/18 05:21:04;;;;;;;18.37;13.77;;;;;;;4.76;70.26;94117.22;5047492;28;20235;-78
2024/01/18 05:23:30;;;;;;;16.50;13.17;;;;;;;4.95;69.57;94115.53;5048543;28;20284;-77
2024/01/18 05:25:55;;;;;;;16.57;13.40;;;;;;;5.14;69.03;94114.69;5047050;28;20336;-79
2024/01/18 05:28:20;;;;;;;16.67;14.27;;;;;;;5.21;68.40;94103.56;5048436;28;20307;-78
2024/01/18 05:30:46;;;;;;;15.73;14.03;;;;;;;5.15;68.51;94142.38;5046591;28;20259;-78
2024/01/18 05:33:11;;;;;;;16.30;14.47;;;;;;;5.14;68.79;94132.94;5044819;28;20253;-76
2024/01/18 05:35:37;;;;;;;19.00;13.87;;;;;;;5.21;68.50;94124.41;5048121;28;20244;-77
2024/01/18 05:38:03;;;;;;;16.70;13.47;;;;;;;5.07;69.04;94156.91;5048878;28;20196;-77
2024/01/18 05:40:29;;;;;;;15.57;13.50;;;;;;;5.17;68.71;94120.44;5038481;28;20245;-77
2024/01/18 05:42:54;;;;;;;15.93;14.13;;;;;;;5.27;68.95;94108.19;5046073;28;20245;-77
2024/01/18 05:45:20;;;;;;;16.37;13.50;;;;;;;5.28;68.47;94124.66;5048669;28;20228;-73
2024/01/18 05:47:46;;;;;;;19.63;14.17;;;;;;;5.32;68.42;94131.25;5064679;28;20186;-77
2024/01/18 05:50:12;;;;;;;16.60;13.60;;;;;;;5.23;68.81;94117.25;5048522;28;20178;-78
2024/01/18 05:52:38;;;;;;;17.20;14.23;;;;;;;5.28;68.95;94127.25;5046936;28;20221;-76
2024/01/18 05:55:04;;;;;;;20.10;15.70;;;;;;;5.21;68.85;94116.59;5038108;28;20248;-75
2024/01/18 05:57:30;;;;;;;17.97;14.43;;;;;;;5.23;68.91;94135.50;5047047;28;20376;-77
2024/01/18 05:59:55;;;;;;;17.27;14.23;;;;;;;5.33;68.30;94108.59;5066817;28;20293;-77
2024/01/18 06:02:21;;;;;;;20.00;14.40;;;;;;;5.38;68.42;94132.44;5049630;28;20181;-78
2024/01/18 06:04:47;;;;;;;16.80;14.17;;;;;;;5.17;68.80;94130.84;5067195;28;20222;-78
2024/01/18 06:07:13;;;;;;;18.53;14.00;;;;;;;5.27;69.37;94129.03;5046835;28;20288;-77
2024/01/18 06:09:38;;;;;;;15.40;12.80;;;;;;;5.35;69.28;94099.66;5050252;28;20233;-78
2024/01/18 06:12:04;;;;;;;15.40;12.73;;;;;;;5.44;69.06;94126.66;5051057;28;20225;-79
2024/01/18 06:14:29;;;;;;;16.73;13.50;;;;;;;5.40;69.11;94128.75;5048136;28;20220;-78
2024/01/18 06:16:56;;;;;;;14.13;12.63;;;;;;;5.41;69.31;94119.13;5048503;28;20233;-78
2024/01/18 06:19:23;;;;;;;15.87;13.73;;;;;;;5.45;69.00;94138.72;5045882;28;20214;-78
2024/01/18 06:21:49;;;;;;;17.30;14.10;;;;;;;5.39;69.73;94132.28;5052382;28;20275;-79
2024/01/18 06:24:14;;;;;;;19.50;14.13;;;;;;;5.42;69.39;94128.59;5051677;28;20247;-79
2024/01/18 06:26:40;;;;;;;18.50;14.93;;;;;;;5.57;68.95;94137.59;5057756;28;20184;-80
2024/01/18 06:29:05;;;;;;;17.47;14.17;;;;;;;5.67;69.07;94116.72;5058710;28;20208;-80
2024/01/18 06:31:31;;;;;;;16.40;14.37;;;;;;;5.65;69.02;94148.13;5057691;28;20224;-79
2024/01/18 06:33:56;;;;;;;18.17;14.73;;;;;;;5.56;69.44;94135.97;5055065;28;20217;-80
2024/01/18 06:36:25;;;;;;;16.00;14.23;;;;;;;5.66;69.25;94128.09;5053474;28;20245;-79
2024/01/18 06:38:50;;;;;;;17.77;14.27;;;;;;;5.64;69.25;94124.78;5071583;28;20190;-80
2024/01/18 06:41:16;;;;;;;16.80;13.27;;;;;;;5.81;69.03;94128.44;5073961;28;20223;-79
2024/01/18 06:43:42;;;;;;;17.93;14.20;;;;;;;5.79;68.89;94109.50;5052611;28;20312;-78
2024/01/18 06:46:16;;;;;;;20.97;16.63;;;;;;;5.87;69.09;94109.59;5052738;28;20249;-79
2024/01/18 06:48:42;;;;;;;19.43;15.87;;;;;;;5.87;69.36;94113.03;5050789;28;20216;-78
2024/01/18 06:51:07;;;;;;;18.93;14.53;;;;;;;5.94;69.29;94110.69;5069509;28;20221;-79
2024/01/18 06:53:33;;;;;;;19.57;15.07;;;;;;;5.96;69.22;94101.75;5052100;28;20257;-82
2024/01/18 06:55:58;;;;;;;20.70;15.33;;;;;;;6.00;69.47;94094.44;5069864;28;20201;-80
2024/01/18 06:58:23;;;;;;;18.17;16.00;;;;;;;5.91;69.89;94106.56;5046085;28;20284;-77
2024/01/18 07:00:49;;;;;;;20.00;14.83;;;;;;;6.03;69.52;94090.72;5048111;28;20221;-76
2024/01/18 07:03:15;;;;;;;18.03;14.17;;;;;;;6.09;69.26;94103.19;5047490;28;20248;-76
2024/01/18 07:05:41;;;;;;;23.03;14.90;;;;;;;6.09;69.70;94103.19;5034917;28;20206;-79
2024/01/18 07:08:07;;;;;;;19.93;13.90;;;;;;;6.16;69.63;94093.81;5064348;28;20185;-79
2024/01/18 07:10:32;;;;;;;17.80;14.90;;;;;;;6.15;69.87;94081.72;5060668;28;20312;-79
2024/01/18 07:12:58;;;;;;;19.90;15.27;;;;;;;6.25;70.28;94074.63;5049668;28;20289;-79
2024/01/18 07:15:23;;;;;;;16.17;13.60;;;;;;;6.07;70.31;94040.72;5050313;28;20231;-78
2024/01/18 07:17:49;;;;;;;13.37;11.60;;;;;;;6.10;70.86;94063.06;5050443;28;20185;-78
2024/01/18 07:20:14;;;;;;;14.67;12.77;;;;;;;6.10;70.88;94040.41;5049179;28;20197;-80
2024/01/18 07:22:40;;;;;;;14.87;12.77;;;;;;;6.14;71.46;94040.91;5048298;28;20221;-79
2024/01/18 07:25:05;;;;;;;14.60;12.13;;;;;;;6.23;71.10;94021.78;5051540;28;20234;-82
2024/01/18 07:27:31;;;;;;;15.50;12.30;;;;;;;6.32;71.36;94020.84;5034311;28;20226;-78
2024/01/18 07:29:57;;;;;;;14.00;11.90;;;;;;;6.40;70.92;93979.16;5053318;28;20232;-78
2024/01/18 07:32:23;;;;;;;13.27;11.83;;;;;;;6.42;71.10;94005.13;5052561;28;20193;-78
2024/01/18 07:34:48;;;;;;;14.93;11.97;;;;;;;6.34;71.70;93961.47;5048780;28;20246;-78
2024/01/18 07:37:14;;;;;;;13.80;11.13;;;;;;;6.33;71.78;93998.16;5049258;28;20229;-78
2024/01/18 07:39:42;;;;;;;12.77;10.60;;;;;;;6.45;71.62;93939.53;5047443;28;20221;-80
2024/01/18 07:42:08;;;;;;;15.83;10.57;;;;;;;6.51;70.87;93970.25;5048487;28;20229;-79
2024/01/18 07:44:34;;;;;;;15.07;11.60;;;;;;;6.47;71.43;93968.06;5050653;28;20320;-79
2024/01/18 07:47:00;;;;;;;12.53;10.90;;;;;;;6.63;71.02;93921.19;5050718;28;20296;-78
2024/01/18 07:49:25;;;;;;;12.47;11.17;;;;;;;6.60;71.13;93963.28;5064488;28;20359;-76
2024/01/18 07:51:51;;;;;;;17.13;11.20;;;;;;;6.57;71.07;93912.16;5045812;28;20312;-78
2024/01/18 07:54:16;;;;;;;11.87;10.53;;;;;;;6.68;70.83;93941.63;5049380;28;20220;-80
2024/01/18 07:56:42;;;;;;;13.33;11.00;;;;;;;6.84;70.51;93924.25;5051357;28;20276;-80
2024/01/18 07:59:08;;;;;;;13.30;11.20;;;;;;;6.95;70.21;93935.38;5049337;28;20193;-78
2024/01/18 08:01:33;;;;;;;12.93;10.80;;;;;;;7.11;69.14;93937.25;5050829;28;20225;-76
2024/01/18 08:03:59;;;;;;;14.47;12.03;;;;;;;6.96;69.53;93919.56;5049238;28;20225;-76
2024/01/18 08:06:24;;;;;;;13.60;12.17;;;;;;;7.05;69.49;93908.16;5049325;28;20228;-78
2024/01/18 08:08:50;;;;;;;17.47;13.10;;;;;;;7.12;69.69;93921.44;5050025;28;20239;-79
2024/01/18 08:11:15;;;;;;;13.73;11.80;;;;;;;7.10;69.28;93912.09;5045507;28;20283;-75
2024/01/18 08:13:41;;;;;;;15.03;12.70;;;;;;;7.18;69.28;93914.75;5046507;28;20317;-76
2024/01/18 08:16:07;;;;;;;15.63;13.23;;;;;;;6.85;69.71;93904.16;5045992;28;20217;-77
2024/01/18 08:18:33;;;;;;;16.83;14.23;;;;;;;6.71;69.94;93928.25;5050075;28;20212;-77
2024/01/18 08:20:58;;;;;;;18.80;15.13;;;;;;;6.72;69.51;93924.66;5047929;28;20240;-78
2024/01/18 08:23:23;;;;;;;18.50;15.40;;;;;;;6.84;69.02;93931.25;5045667;28;20193;-78
2024/01/18 08:25:50;;;;;;;21.30;17.80;;;;;;;6.75;69.15;93919.13;5049284;28;20224;-75
2024/01/18 08:28:15;;;;;;;20.00;16.27;;;;;;;6.58;69.29;93923.47;5043478;28;20221;-76
2024/01/18 08:30:41;;;;;;;19.93;16.23;;;;;;;6.69;69.19;93927.59;5049969;28;20232;-74
2024/01/18 08:33:09;;;;;;;20.73;17.07;;;;;;;6.74;69.27;93896.59;5048816;28;20233;-77
2024/01/18 08:35:35;;;;;;;24.10;17.13;;;;;;;6.84;69.58;93923.41;5044592;28;20216;-76
2024/01/18 08:38:00;;;;;;;20.10;16.50;;;;;;;6.79;68.97;93915.22;5039834;28;20305;-78
2024/01/18 08:40:26;;;;;;;18.93;16.43;;;;;;;6.75;68.66;93899.03;5047130;28;20283;-79
2024/01/18 08:42:51;;;;;;;21.93;17.00;;;;;;;6.92;68.38;93928.66;5059322;28;20221;-72
2024/01/18 08:45:18;;;;;;;22.80;17.80;;;;;;;6.68;69.50;93925.94;5044206;28;20233;-77
2024/01/18 08:47:44;;;;;;;22.97;17.60;;;;;;;6.85;69.04;93885.88;5045972;28;20217;-77
2024/01/18 08:50:10;;;;;;;21.20;16.87;;;;;;;6.66;69.79;93909.63;5043399;28;20205;-76
2024/01/18 08:52:35;;;;;;;22.00;18.27;;;;;;;6.67;69.83;93925.13;5044320;28;20221;-75
2024/01/18 08:55:02;;;;;;;21.13;17.93;;;;;;;6.65;69.87;93902.75;5044864;28;20221;-73
2024/01/18 08:57:29;;;;;;;24.80;17.87;;;;;;;6.74;69.69;93909.66;5042980;28;20237;-78
2024/01/18 08:59:55;;;;;;;22.17;17.50;;;;;;;6.68;70.03;93923.31;5044726;28;20224;-75
2024/01/18 09:02:20;;;;;;;22.37;18.13;;;;;;;6.78;69.86;93910.97;5043373;28;20199;-71
2024/01/18 09:04:46;;;;;;;20.67;17.50;;;;;;;7.03;69.28;93906.66;5046125;28;20233;-75
2024/01/18 09:07:11;;;;;;;23.37;19.17;;;;;;;7.04;68.90;93924.00;5046685;28;20244;-73
2024/01/18 09:09:37;;;;;;;19.80;17.27;;;;;;;6.98;68.68;93925.47;5062803;28;20231;-74
2024/01/18 09:12:02;;;;;;;20.77;18.40;;;;;;;7.00;68.99;93918.28;5047157;28;20229;-74
2024/01/18 09:14:28;;;;;;;21.67;18.17;;;;;;;7.23;68.63;93912.47;5044388;28;20252;-78
2024/01/18 09:16:53;;;;;;;20.20;17.23;;;;;;;7.32;67.92;93893.22;5039695;28;20249;-71
2024/01/18 09:19:20;;;;;;;22.90;18.27;;;;;;;7.47;67.77;93903.88;5042385;28;20226;-72
2024/01/18 09:21:46;;;;;;;22.30;18.10;;;;;;;7.48;67.77;93898.50;5045429;28;20221;-72
2024/01/18 09:24:13;;;;;;;24.53;19.20;;;;;;;7.43;68.02;93897.31;5046022;28;20312;-79
2024/01/18 09:26:38;;;;;;;19.77;17.20;;;;;;;7.44;68.21;93899.78;5045922;28;20209;-79
2024/01/18 09:29:04;;;;;;;19.37;16.80;;;;;;;7.52;67.90;93880.69;5040447;28;20261;-79
2024/01/18 09:31:29;;;;;;;21.03;16.13;;;;;;;7.24;69.30;93877.50;5045982;28;20217;-79
2024/01/18 09:33:55;;;;;;;20.03;17.03;;;;;;;7.31;69.65;93878.50;5043204;28;20248;-78
2024/01/18 09:36:20;;;;;;;21.47;16.87;;;;;;;7.53;69.37;93860.56;5046837;28;20332;-73
2024/01/18 09:38:48;;;;;;;19.50;16.00;;;;;;;7.61;68.84;93857.97;5041737;28;20259;-72
2024/01/18 09:41:15;;;;;;;18.00;16.10;;;;;;;7.73;68.99;93859.28;5042488;28;20181;-72
2024/01/18 09:43:42;;;;;;;20.17;15.53;;;;;;;7.91;68.87;93839.00;5045721;28;20233;-74
2024/01/18 09:46:09;;;;;;;16.43;14.57;;;;;;;8.27;67.72;93822.09;5047051;28;20229;-74
2024/01/18 09:48:36;;;;;;;16.13;14.37;;;;;;;8.61;67.39;93817.47;5040761;28;20213;-75
2024/01/18 09:51:04;;;;;;;15.30;13.30;;;;;;;8.79;66.77;93819.88;5044820;28;20228;-72
2024/01/18 09:53:30;;;;;;;14.10;12.43;;;;;;;8.68;67.00;93807.09;5047041;28;20207;-73
2024/01/18 09:56:06;;;;;;;14.93;12.83;;;;;;;8.83;67.17;93805.41;5044280;28;20222;-74
2024/01/18 09:58:32;;;;;;;15.97;13.03;;;;;;;9.11;66.86;93789.19;5043402;28;20249;-74
2024/01/18 10:00:59;;;;;;;14.67;12.30;;;;;;;9.23;65.45;93787.84;5045734;28;20243;-79
2024/01/18 10:03:26;;;;;;;14.57;12.90;;;;;;;9.46;64.96;93789.63;5063090;28;20279;-75
2024/01/18 10:05:51;;;;;;;13.07;11.47;;;;;;;9.58;64.21;93766.44;5045872;28;20213;-78
2024/01/18 10:08:17;;;;;;;13.93;12.52;;;;;;;10.01;63.97;93775.41;5041553;28;20196;-77
2024/01/18 10:10:43;;;;;;;13.32;11.80;;;;;;;10.14;62.83;93773.00;5047424;28;20260;-75
2024/01/18 10:13:15;;;;;;;13.02;11.68;;;;;;;10.10;62.46;93747.25;5044949;28;20317;-80
2024/01/18 10:15:41;;;;;;;13.13;11.18;;;;;;;10.33;62.46;93747.22;5043608;28;20233;-80
2024/01/18 10:18:07;;;;;;;12.52;11.23;;;;;;;10.41;61.57;93748.94;5041880;28;20225;-78
2024/01/18 10:20:33;;;;;;;14.95;11.65;;;;;;;10.48;61.63;93737.53;5061467;28;20200;-77
2024/01/18 10:23:00;;;;;;;13.68;11.75;;;;;;;10.32;62.26;93735.09;5046311;28;20212;-80
2024/01/18 10:25:26;;;;;;;13.38;11.45;;;;;;;10.49;62.20;93760.16;5048390;28;20240;-74
2024/01/18 10:27:53;;;;;;;14.38;11.60;;;;;;;10.49;61.82;93752.28;5041489;28;20231;-75
2024/01/18 10:30:19;;;;;;;17.10;11.88;;;;;;;10.59;61.38;93720.47;5046140;28;20227;-79
2024/01/18 10:32:45;;;;;;;13.40;12.02;;;;;;;10.67;62.18;93711.66;5045751;28;20213;-77
2024/01/18 10:35:24;;;;;;;13.70;12.23;;;;;;;10.82;62.38;93725.59;5046895;28;20283;-74
2024/01/18 10:38:04;;;;;;;18.45;15.15;;;;;;;10.96;62.15;93719.50;5057984;28;20232;-78
2024/01/18 10:40:32;;;;;;;15.50;12.65;;;;;;;11.08;61.51;93697.94;5032692;28;20255;-77
2024/01/18 10:42:59;;;;;;;15.38;12.93;;;;;;;11.16;61.27;93700.47;5034898;28;20229;-77
2024/01/18 10:45:27;;;;;;;13.98;12.48;;;;;;;11.55;60.57;93707.09;5046259;28;20220;-77
2024/01/18 10:47:57;;;;;;;14.95;13.35;;;;;;;11.61;59.53;93695.81;5044774;28;20183;-76
2024/01/18 10:50:23;;;;;;;13.45;12.05;;;;;;;11.98;59.36;93684.16;5044965;28;20285;-79
2024/01/18 10:52:48;;;;;;;14.90;12.00;;;;;;;12.20;58.45;93682.25;5046378;28;20220;-78
2024/01/18 10:55:13;;;;;;;13.93;12.18;;;;;;;12.25;57.54;93692.22;5044307;28;20234;-78
2024/01/18 10:57:40;;;;;;;14.68;10.45;;;;;;;12.23;57.66;93712.69;5044423;28;20234;-78
2024/01/18 11:00:13;;;;;;;13.07;10.23;;;;;;;12.33;57.28;93682.31;5046471;28;20225;-78
2024/01/18 11:02:42;;;;;;;9.93;8.40;;;;;;;12.67;57.04;93682.47;5040819;28;20285;-78
2024/01/18 11:05:17;;;;;;;9.90;8.75;;;;;;;12.98;56.72;93688.06;5045281;28;20186;-74
2024/01/18 11:07:43;;;;;;;9.13;8.10;;;;;;;13.00;56.38;93651.72;5048823;28;20221;-75
2024/01/18 11:10:13;;;;;;;11.00;9.52;;;;;;;13.18;55.96;93632.69;5047562;28;20289;-74
2024/01/18 11:12:41;;;;;;;9.20;8.25;;;;;;;13.44;55.68;93653.06;5049701;28;20274;-74
2024/01/18 11:15:07;;;;;;;11.02;8.27;;;;;;;13.59;54.42;93639.63;5048820;28;20253;-74
2024/01/18 11:17:46;;;;;;;9.70;8.48;;;;;;;13.55;53.65;93635.78;5050597;28;20247;-73